Time,TemperatureF,DewpointF,PressureIn,WindDirection,WindDirectionDegrees,WindSpeedMPH,WindSpeedGustMPH,Humidity,HourlyPrecipIn,Conditions,Clouds,dailyrainin,SoftwareType,DateUTC
2013-02-10 00:01:00,71.0,60.0,-100.00,ENE,61,5.0,10.0,68,0.00,,,0.00,,2013-02-10 10:01:00,
2013-02-10 00:11:00,71.0,60.0,-100.00,ENE,61,5.0,10.0,68,0.00,,,0.00,,2013-02-10 10:11:00,
2013-02-10 00:21:00,71.0,60.0,-100.00,ENE,61,5.0,10.0,68,0.00,,,0.00,,2013-02-10 10:21:00,
2013-02-10 00:31:00,71.0,60.0,-100.00,ENE,61,5.0,10.0,68,0.00,,,0.00,,2013-02-10 10:31:00,
2013-02-10 00:41:00,71.0,60.0,-100.00,ENE,68,7.0,14.0,68,0.00,,,0.00,,2013-02-10 10:41:00,
2013-02-10 01:01:00,71.0,60.0,-100.00,ENE,68,7.0,14.0,68,0.00,,,0.00,,2013-02-10 11:01:00,
2013-02-10 01:11:00,71.0,60.0,-100.00,ENE,68,7.0,14.0,68,0.00,,,0.00,,2013-02-10 11:11:00,
2013-02-10 01:21:00,71.0,60.0,-100.00,ENE,68,7.0,14.0,68,0.00,,,0.00,,2013-02-10 11:21:00,
2013-02-10 01:31:00,71.0,60.0,-100.00,ENE,68,7.0,14.0,68,0.00,,,0.00,,2013-02-10 11:31:00,
2013-02-10 01:41:00,71.0,60.0,-100.00,NE,39,5.0,12.0,69,0.00,,,0.00,,2013-02-10 11:41:00,
2013-02-10 02:01:00,71.0,60.0,-100.00,NE,39,5.0,12.0,69,0.00,,,0.00,,2013-02-10 12:01:00,
2013-02-10 02:12:00,71.0,60.0,-100.00,NE,39,5.0,12.0,69,0.00,,,0.00,,2013-02-10 12:12:00,
2013-02-10 02:21:00,71.0,60.0,-100.00,NE,39,5.0,12.0,69,0.00,,,0.00,,2013-02-10 12:21:00,
2013-02-10 02:32:00,71.0,60.0,-100.00,NE,39,5.0,12.0,69,0.00,,,0.00,,2013-02-10 12:32:00,
2013-02-10 04:41:00,69.0,61.0,-100.00,North,3,3.0,9.0,77,-99.99,,,0.00,,2013-02-10 14:41:00,
2013-02-10 05:01:00,69.0,61.0,-100.00,North,3,3.0,9.0,77,-99.99,,,0.00,,2013-02-10 15:01:00,
2013-02-10 05:11:00,69.0,61.0,-100.00,North,3,3.0,9.0,77,-99.99,,,0.00,,2013-02-10 15:11:00,
2013-02-10 05:21:00,69.0,61.0,-100.00,North,3,3.0,9.0,77,-99.99,,,0.00,,2013-02-10 15:21:00,
2013-02-10 05:31:00,69.0,61.0,-100.00,North,3,3.0,9.0,77,-99.99,,,0.00,,2013-02-10 15:31:00,
2013-02-10 05:41:00,68.0,60.0,-100.00,NNE,32,3.0,10.0,75,0.00,,,0.00,,2013-02-10 15:41:00,
2013-02-10 06:01:00,68.0,60.0,-100.00,NNE,32,3.0,10.0,75,0.00,,,0.00,,2013-02-10 16:01:00,
2013-02-10 06:11:00,68.0,60.0,-100.00,NNE,32,3.0,10.0,75,0.00,,,0.00,,2013-02-10 16:11:00,
2013-02-10 06:21:00,68.0,60.0,-100.00,NNE,32,3.0,10.0,75,0.00,,,0.00,,2013-02-10 16:21:00,
2013-02-10 06:31:00,68.0,60.0,-100.00,NNE,32,3.0,10.0,75,0.00,,,0.00,,2013-02-10 16:31:00,
2013-02-10 06:41:00,68.0,61.0,-100.00,NNW,334,3.0,7.0,78,0.00,,,0.00,,2013-02-10 16:41:00,
2013-02-10 07:01:00,68.0,61.0,-100.00,NNW,334,3.0,7.0,78,0.00,,,0.00,,2013-02-10 17:01:00,
2013-02-10 07:11:00,68.0,61.0,-100.00,NNW,334,3.0,7.0,78,0.00,,,0.00,,2013-02-10 17:11:00,
2013-02-10 07:21:00,68.0,61.0,-100.00,NNW,334,3.0,7.0,78,0.00,,,0.00,,2013-02-10 17:21:00,
2013-02-10 07:32:00,68.0,61.0,-100.00,NNW,334,3.0,7.0,78,0.00,,,0.00,,2013-02-10 17:32:00,
2013-02-10 07:41:00,71.0,63.0,-100.00,NE,46,7.0,15.0,76,0.00,,,0.00,,2013-02-10 17:41:00,
2013-02-10 08:02:00,71.0,63.0,-100.00,NE,46,7.0,15.0,76,0.00,,,0.00,,2013-02-10 18:02:00,
2013-02-10 08:11:00,71.0,63.0,-100.00,NE,46,7.0,15.0,76,0.00,,,0.00,,2013-02-10 18:11:00,
2013-02-10 08:21:00,71.0,63.0,-100.00,NE,46,7.0,15.0,76,0.00,,,0.00,,2013-02-10 18:21:00,
2013-02-10 08:31:00,71.0,63.0,-100.00,NE,46,7.0,15.0,76,0.00,,,0.00,,2013-02-10 18:31:00,
2013-02-10 08:41:00,73.0,62.0,-100.00,NE,36,6.0,15.0,68,0.00,,,0.00,,2013-02-10 18:41:00,
2013-02-10 09:01:00,73.0,62.0,-100.00,NE,36,6.0,15.0,68,0.00,,,0.00,,2013-02-10 19:01:00,
2013-02-10 09:11:00,73.0,62.0,-100.00,NE,36,6.0,15.0,68,0.00,,,0.00,,2013-02-10 19:11:00,
2013-02-10 09:21:00,73.0,62.0,-100.00,NE,36,6.0,15.0,68,0.00,,,0.00,,2013-02-10 19:21:00,
2013-02-10 09:32:00,73.0,62.0,-100.00,NE,36,6.0,15.0,68,0.00,,,0.00,,2013-02-10 19:32:00,
2013-02-10 09:41:00,74.0,61.0,-100.00,NE,53,6.0,20.0,64,0.00,,,0.00,,2013-02-10 19:41:00,
2013-02-10 10:02:00,74.0,61.0,-100.00,NE,53,6.0,20.0,64,0.00,,,0.00,,2013-02-10 20:02:00,
2013-02-10 10:11:00,74.0,61.0,-100.00,NE,53,6.0,20.0,64,0.00,,,0.00,,2013-02-10 20:11:00,
2013-02-10 10:21:00,74.0,61.0,-100.00,NE,53,6.0,20.0,64,0.00,,,0.00,,2013-02-10 20:21:00,
2013-02-10 10:32:00,74.0,61.0,-100.00,NE,53,6.0,20.0,64,0.00,,,0.00,,2013-02-10 20:32:00,
2013-02-10 10:41:00,73.0,69.0,-100.00,NE,41,6.0,14.0,86,0.02,,,0.02,,2013-02-10 20:41:00,
2013-02-10 11:02:00,73.0,69.0,-100.00,NE,41,6.0,14.0,86,0.02,,,0.02,,2013-02-10 21:02:00,
2013-02-10 11:11:00,73.0,69.0,-100.00,NE,41,6.0,14.0,86,0.02,,,0.02,,2013-02-10 21:11:00,
2013-02-10 11:21:00,73.0,69.0,-100.00,NE,41,6.0,14.0,86,0.02,,,0.02,,2013-02-10 21:21:00,
2013-02-10 11:32:00,73.0,69.0,-100.00,NE,41,6.0,14.0,86,0.02,,,0.02,,2013-02-10 21:32:00,
2013-02-10 11:41:00,73.0,67.0,-100.00,East,92,6.0,12.0,82,0.01,,,0.03,,2013-02-10 21:41:00,
2013-02-10 12:11:00,73.0,67.0,-100.00,East,92,6.0,12.0,82,0.01,,,0.03,,2013-02-10 22:11:00,
2013-02-10 12:21:00,73.0,67.0,-100.00,East,92,6.0,12.0,82,0.01,,,0.03,,2013-02-10 22:21:00,
2013-02-10 12:32:00,73.0,67.0,-100.00,East,92,6.0,12.0,82,0.01,,,0.03,,2013-02-10 22:32:00,
2013-02-10 12:41:00,73.0,69.0,-100.00,East,80,10.0,16.0,87,0.03,,,0.06,,2013-02-10 22:41:00,
2013-02-10 13:02:00,73.0,69.0,-100.00,East,80,10.0,16.0,87,0.03,,,0.06,,2013-02-10 23:02:00,
2013-02-10 13:11:00,73.0,69.0,-100.00,East,80,10.0,16.0,87,0.03,,,0.06,,2013-02-10 23:11:00,
2013-02-10 13:21:00,73.0,69.0,-100.00,East,80,10.0,16.0,87,0.03,,,0.06,,2013-02-10 23:21:00,
2013-02-10 13:31:00,73.0,69.0,-100.00,East,80,10.0,16.0,87,0.03,,,0.06,,2013-02-10 23:31:00,
2013-02-10 13:41:00,76.0,65.0,-100.00,ENE,65,7.0,16.0,69,0.00,,,0.06,,2013-02-10 23:41:00,
2013-02-10 14:01:00,76.0,65.0,-100.00,ENE,65,7.0,16.0,69,0.00,,,0.06,,2013-02-11 00:01:00,
2013-02-10 14:11:00,76.0,65.0,-100.00,ENE,65,7.0,16.0,69,0.00,,,0.06,,2013-02-11 00:11:00,
2013-02-10 14:22:00,76.0,65.0,-100.00,ENE,65,7.0,16.0,69,0.00,,,0.06,,2013-02-11 00:22:00,
2013-02-10 14:31:00,76.0,65.0,-100.00,ENE,65,7.0,16.0,69,0.00,,,0.06,,2013-02-11 00:31:00,
2013-02-10 14:41:00,79.0,67.0,-100.00,ENE,67,10.0,18.0,67,0.00,,,0.06,,2013-02-11 00:41:00,
2013-02-10 15:01:00,79.0,67.0,-100.00,ENE,67,10.0,18.0,67,0.00,,,0.06,,2013-02-11 01:01:00,
2013-02-10 15:11:00,79.0,67.0,-100.00,ENE,67,10.0,18.0,67,0.00,,,0.06,,2013-02-11 01:11:00,
2013-02-10 15:21:00,79.0,67.0,-100.00,ENE,67,10.0,18.0,67,0.00,,,0.06,,2013-02-11 01:21:00,
2013-02-10 15:32:00,79.0,67.0,-100.00,ENE,67,10.0,18.0,67,0.00,,,0.06,,2013-02-11 01:32:00,
2013-02-10 15:41:00,81.0,66.0,-100.00,ENE,77,9.0,21.0,60,0.00,,,0.06,,2013-02-11 01:41:00,
2013-02-10 16:01:00,81.0,66.0,-100.00,ENE,77,9.0,21.0,60,0.00,,,0.06,,2013-02-11 02:01:00,
2013-02-10 16:11:00,81.0,66.0,-100.00,ENE,77,9.0,21.0,60,0.00,,,0.06,,2013-02-11 02:11:00,
2013-02-10 16:21:00,81.0,66.0,-100.00,ENE,77,9.0,21.0,60,0.00,,,0.06,,2013-02-11 02:21:00,
2013-02-10 16:31:00,81.0,66.0,-100.00,ENE,77,9.0,21.0,60,0.00,,,0.06,,2013-02-11 02:31:00,
2013-02-10 16:41:00,78.0,63.0,-100.00,ENE,67,6.0,15.0,60,0.00,,,0.06,,2013-02-11 02:41:00,
2013-02-10 17:01:00,78.0,63.0,-100.00,ENE,67,6.0,15.0,60,0.00,,,0.06,,2013-02-11 03:01:00,
2013-02-10 17:11:00,78.0,63.0,-100.00,ENE,67,6.0,15.0,60,0.00,,,0.06,,2013-02-11 03:11:00,
2013-02-10 17:21:00,78.0,63.0,-100.00,ENE,67,6.0,15.0,60,0.00,,,0.06,,2013-02-11 03:21:00,
2013-02-10 17:31:00,78.0,63.0,-100.00,ENE,67,6.0,15.0,60,0.00,,,0.06,,2013-02-11 03:31:00,
2013-02-10 17:41:00,76.0,62.0,-100.00,NNE,31,8.0,12.0,61,0.00,,,0.06,,2013-02-11 03:41:00,
2013-02-10 18:01:00,76.0,62.0,-100.00,NNE,31,8.0,12.0,61,0.00,,,0.06,,2013-02-11 04:01:00,
2013-02-10 18:11:00,76.0,62.0,-100.00,NNE,31,8.0,12.0,61,0.00,,,0.06,,2013-02-11 04:11:00,
2013-02-10 18:21:00,76.0,62.0,-100.00,NNE,31,8.0,12.0,61,0.00,,,0.06,,2013-02-11 04:21:00,
2013-02-10 18:31:00,76.0,62.0,-100.00,NNE,31,8.0,12.0,61,0.00,,,0.06,,2013-02-11 04:31:00,
2013-02-10 18:41:00,73.0,63.0,-100.00,NE,50,8.0,14.0,72,0.00,,,0.06,,2013-02-11 04:41:00,
2013-02-10 19:01:00,73.0,63.0,-100.00,NE,50,8.0,14.0,72,0.00,,,0.06,,2013-02-11 05:01:00,
2013-02-10 19:11:00,73.0,63.0,-100.00,NE,50,8.0,14.0,72,0.00,,,0.06,,2013-02-11 05:11:00,
2013-02-10 19:22:00,73.0,63.0,-100.00,NE,50,8.0,14.0,72,0.00,,,0.06,,2013-02-11 05:22:00,
2013-02-10 19:31:00,73.0,63.0,-100.00,NE,50,8.0,14.0,72,0.00,,,0.06,,2013-02-11 05:31:00,
2013-02-10 19:41:00,72.0,63.0,-100.00,NE,56,6.0,17.0,74,0.00,,,0.06,,2013-02-11 05:41:00,
2013-02-10 20:01:00,72.0,63.0,-100.00,NE,56,6.0,17.0,74,0.00,,,0.06,,2013-02-11 06:01:00,
2013-02-10 20:11:00,72.0,63.0,-100.00,NE,56,6.0,17.0,74,0.00,,,0.06,,2013-02-11 06:11:00,
2013-02-10 20:21:00,72.0,63.0,-100.00,NE,56,6.0,17.0,74,0.00,,,0.06,,2013-02-11 06:21:00,
2013-02-10 20:32:00,72.0,63.0,-100.00,NE,56,6.0,17.0,74,0.00,,,0.06,,2013-02-11 06:32:00,
2013-02-10 20:41:00,72.0,65.0,-100.00,ENE,64,8.0,16.0,78,0.00,,,0.06,,2013-02-11 06:41:00,
2013-02-10 21:01:00,72.0,65.0,-100.00,ENE,64,8.0,16.0,78,0.00,,,0.06,,2013-02-11 07:01:00,
2013-02-10 21:11:00,72.0,65.0,-100.00,ENE,64,8.0,16.0,78,0.00,,,0.06,,2013-02-11 07:11:00,
2013-02-10 21:21:00,72.0,65.0,-100.00,ENE,64,8.0,16.0,78,0.00,,,0.06,,2013-02-11 07:21:00,
2013-02-10 21:32:00,72.0,65.0,-100.00,ENE,64,8.0,16.0,78,0.00,,,0.06,,2013-02-11 07:32:00,
2013-02-10 21:41:00,72.0,62.0,-100.00,NE,49,7.0,13.0,71,0.00,,,0.06,,2013-02-11 07:41:00,
2013-02-10 22:01:00,72.0,62.0,-100.00,NE,49,7.0,13.0,71,0.00,,,0.06,,2013-02-11 08:01:00,
2013-02-10 22:11:00,72.0,62.0,-100.00,NE,49,7.0,13.0,71,0.00,,,0.06,,2013-02-11 08:11:00,
2013-02-10 22:21:00,72.0,62.0,-100.00,NE,49,7.0,13.0,71,0.00,,,0.06,,2013-02-11 08:21:00,
2013-02-10 22:31:00,72.0,62.0,-100.00,NE,49,7.0,13.0,71,0.00,,,0.06,,2013-02-11 08:31:00,
2013-02-10 22:41:00,72.0,62.0,-100.00,NE,46,8.0,13.0,70,0.00,,,0.06,,2013-02-11 08:41:00,
2013-02-10 23:01:00,72.0,62.0,-100.00,NE,46,8.0,13.0,70,0.00,,,0.06,,2013-02-11 09:01:00,
2013-02-10 23:12:00,72.0,62.0,-100.00,NE,46,8.0,13.0,70,0.00,,,0.06,,2013-02-11 09:12:00,
2013-02-10 23:21:00,72.0,62.0,-100.00,NE,46,8.0,13.0,70,0.00,,,0.06,,2013-02-11 09:21:00,
2013-02-10 23:31:00,72.0,62.0,-100.00,NE,46,8.0,13.0,70,0.00,,,0.06,,2013-02-11 09:31:00,
2013-02-10 23:41:00,72.0,62.0,-100.00,NE,56,7.0,14.0,71,0.00,,,0.06,,2013-02-11 09:41:00,